createdAt,value
2023-04-26T00:00:30.289Z,96096.31
2023-04-26T00:03:00.702Z,96092.44
2023-04-26T00:05:29.467Z,96079.06
2023-04-26T00:07:58.281Z,96088.66
2023-04-26T00:10:25.765Z,96090.00
2023-04-26T00:12:53.262Z,96098.34
2023-04-26T00:15:20.744Z,96094.19
2023-04-26T00:17:48.523Z,96094.75
2023-04-26T00:20:17.677Z,96100.28
2023-04-26T00:22:45.149Z,96100.44
2023-04-26T00:25:13.880Z,96104.91
2023-04-26T00:27:41.640Z,96098.00
2023-04-26T00:30:10.493Z,96092.53
2023-04-26T00:32:38.045Z,96085.03
2023-04-26T00:35:06.281Z,96091.16
2023-04-26T00:37:35.075Z,96085.34
2023-04-26T00:40:02.528Z,96088.63
2023-04-26T00:42:30.062Z,96083.38
2023-04-26T00:44:57.790Z,96085.03
2023-04-26T00:47:25.836Z,96091.69
2023-04-26T00:49:53.532Z,96092.44
2023-04-26T00:52:21.089Z,96094.09
2023-04-26T00:54:50.255Z,96089.41
2023-04-26T00:57:17.827Z,96095.03
2023-04-26T00:59:45.391Z,96095.66
2023-04-26T01:02:13.105Z,96096.66
2023-04-26T01:04:41.848Z,96093.16
2023-04-26T01:07:10.050Z,96095.09
2023-04-26T01:09:37.548Z,96101.44
2023-04-26T01:12:08.286Z,96099.50
2023-04-26T01:14:36.889Z,96099.34
2023-04-26T01:17:05.562Z,96109.72
2023-04-26T01:19:33.276Z,96101.47
2023-04-26T01:22:00.765Z,96108.56
2023-04-26T01:24:30.096Z,96107.97
2023-04-26T01:26:58.617Z,96107.16
2023-04-26T01:29:27.006Z,96113.91
2023-04-26T01:31:54.467Z,96105.88
2023-04-26T01:34:21.933Z,96102.94
2023-04-26T01:36:49.427Z,96109.69
2023-04-26T01:39:16.998Z,96101.00
2023-04-26T01:41:45.824Z,96103.38
2023-04-26T01:44:13.310Z,96115.28
2023-04-26T01:46:40.823Z,96107.78
2023-04-26T01:49:08.376Z,96118.06
2023-04-26T01:51:36.234Z,96107.66
2023-04-26T01:54:04.238Z,96108.38
2023-04-26T01:56:31.720Z,96113.31
2023-04-26T01:59:00.497Z,96109.59
2023-04-26T02:01:28.099Z,96115.41
2023-04-26T02:03:55.624Z,96111.19
2023-04-26T02:06:23.089Z,96111.00
2023-04-26T02:08:50.640Z,96115.56
2023-04-26T02:11:18.457Z,96114.53
2023-04-26T02:13:45.931Z,96111.66
2023-04-26T02:16:16.072Z,96117.00
2023-04-26T02:18:44.305Z,96123.00
2023-04-26T02:21:12.295Z,96116.25
2023-04-26T02:23:39.783Z,96113.25
2023-04-26T02:26:07.739Z,96114.16
2023-04-26T02:28:35.221Z,96120.56
2023-04-26T02:31:03.232Z,96116.00
2023-04-26T02:33:32.097Z,96110.53
2023-04-26T02:35:59.663Z,96123.69
2023-04-26T02:38:27.326Z,96125.94
2023-04-26T02:40:59.464Z,96118.31
2023-04-26T02:43:27.072Z,96118.34
2023-04-26T02:45:54.669Z,96113.00
2023-04-26T02:48:22.271Z,96105.00
2023-04-26T02:50:51.161Z,96107.69
2023-04-26T02:53:18.686Z,96114.16
2023-04-26T02:55:46.242Z,96115.28
2023-04-26T02:58:13.728Z,96115.06
2023-04-26T03:00:47.030Z,96109.66
2023-04-26T03:03:14.834Z,96112.16
2023-04-26T03:05:42.570Z,96113.13
2023-04-26T03:08:11.543Z,96111.66
2023-04-26T03:10:39.248Z,96121.44
2023-04-26T03:13:07.232Z,96128.88
2023-04-26T03:15:34.736Z,96127.28
2023-04-26T03:18:02.232Z,96127.84
2023-04-26T03:20:29.735Z,96125.16
2023-04-26T03:22:57.196Z,96132.16
2023-04-26T03:25:26.077Z,96127.53
2023-04-26T03:27:53.762Z,96125.59
2023-04-26T03:30:21.383Z,96131.25
2023-04-26T03:32:49.427Z,96132.38
2023-04-26T03:35:17.050Z,96131.75
2023-04-26T03:37:46.113Z,96128.06
2023-04-26T03:40:13.857Z,96120.16
2023-04-26T03:42:42.648Z,96130.63
2023-04-26T03:45:11.076Z,96129.44
2023-04-26T03:47:38.619Z,96132.53
2023-04-26T03:50:07.932Z,96136.47
2023-04-26T03:52:35.793Z,96144.47
2023-04-26T03:55:03.476Z,96149.91
2023-04-26T03:57:31.011Z,96144.84
2023-04-26T03:59:59.827Z,96145.03
2023-04-26T04:02:27.503Z,96139.25
2023-04-26T04:04:55.274Z,96142.34
2023-04-26T04:07:22.978Z,96150.91
2023-04-26T04:09:50.437Z,96146.00
2023-04-26T04:12:17.926Z,96145.19
2023-04-26T04:14:45.393Z,96150.88
2023-04-26T04:17:14.246Z,96147.84
2023-04-26T04:19:41.734Z,96140.84
2023-04-26T04:22:09.195Z,96146.41
2023-04-26T04:24:36.997Z,96162.78
2023-04-26T04:27:04.891Z,96159.31
2023-04-26T04:29:32.692Z,96161.00
2023-04-26T04:32:00.479Z,96163.59
2023-04-26T04:34:29.310Z,96161.03
2023-04-26T04:36:56.771Z,96166.22
2023-04-26T04:39:24.219Z,96170.69
2023-04-26T04:41:51.709Z,96159.06
2023-04-26T04:44:19.693Z,96169.88
2023-04-26T04:46:47.173Z,96173.78
2023-04-26T04:49:14.884Z,96165.19
2023-04-26T04:51:43.732Z,96174.88
2023-04-26T04:54:13.105Z,96177.38
2023-04-26T04:56:41.171Z,96175.13
2023-04-26T04:59:08.771Z,96176.81
2023-04-26T05:01:37.027Z,96179.03
2023-04-26T05:04:04.686Z,96173.78
2023-04-26T05:06:33.055Z,96176.81
2023-04-26T05:09:02.381Z,96174.84
2023-04-26T05:11:29.812Z,96177.84
2023-04-26T05:13:57.619Z,96176.38
2023-04-26T05:16:25.683Z,96177.25
2023-04-26T05:18:53.204Z,96178.63
2023-04-26T05:21:20.800Z,96180.88
2023-04-26T05:23:48.396Z,96178.22
2023-04-26T05:26:17.846Z,96181.69
2023-04-26T05:28:45.714Z,96177.06
2023-04-26T05:31:13.336Z,96178.16
2023-04-26T05:33:41.127Z,96176.78
2023-04-26T05:36:09.408Z,96177.69
2023-04-26T05:38:37.958Z,96180.53
2023-04-26T05:41:05.469Z,96178.75
2023-04-26T05:43:34.357Z,96184.53
2023-04-26T05:46:02.072Z,96189.84
2023-04-26T05:48:29.820Z,96186.72
2023-04-26T05:50:57.337Z,96183.00
2023-04-26T05:53:24.783Z,96171.63
2023-04-26T05:55:52.295Z,96174.69
2023-04-26T05:58:19.760Z,96178.28
2023-04-26T06:00:48.583Z,96179.09
2023-04-26T06:03:16.503Z,96177.47
2023-04-26T06:05:44.213Z,96177.97
2023-04-26T06:08:11.695Z,96175.13
2023-04-26T06:10:39.178Z,96177.53
2023-04-26T06:13:06.881Z,96190.16
2023-04-26T06:15:34.398Z,96198.75
2023-04-26T06:18:03.206Z,96207.56
2023-04-26T06:20:30.713Z,96207.97
2023-04-26T06:22:58.452Z,96209.25
2023-04-26T06:25:25.931Z,96210.69
2023-04-26T06:27:53.879Z,96206.88
2023-04-26T06:30:21.352Z,96213.78
2023-04-26T06:32:49.421Z,96220.34
2023-04-26T06:35:18.456Z,96218.97
2023-04-26T06:37:45.931Z,96228.56
2023-04-26T06:40:15.831Z,96231.41
2023-04-26T06:42:43.431Z,96229.28
2023-04-26T06:45:12.418Z,96242.97
2023-04-26T06:47:40.020Z,96245.28
2023-04-26T06:50:08.870Z,96244.81
2023-04-26T06:52:37.973Z,96240.06
2023-04-26T06:55:06.052Z,96233.31
2023-04-26T06:57:33.545Z,96225.09
2023-04-26T07:00:01.009Z,96229.34
2023-04-26T07:02:28.615Z,96227.06
2023-04-26T07:04:56.388Z,96228.56
2023-04-26T07:07:24.222Z,96229.00
2023-04-26T07:09:53.824Z,96229.75
2023-04-26T07:12:21.382Z,96230.00
2023-04-26T07:14:48.825Z,96230.88
2023-04-26T07:17:16.630Z,96226.75
2023-04-26T07:19:44.106Z,96227.00
2023-04-26T07:22:12.028Z,96225.09
2023-04-26T07:24:39.497Z,96226.09
2023-04-26T07:27:08.293Z,96222.16
2023-04-26T07:29:35.830Z,96217.56
2023-04-26T07:32:03.861Z,96226.88
2023-04-26T07:34:31.492Z,96227.63
2023-04-26T07:36:59.139Z,96226.56
2023-04-26T07:39:26.707Z,96230.47
2023-04-26T07:41:54.148Z,96227.75
2023-04-26T07:44:23.106Z,96233.28
2023-04-26T07:46:50.985Z,96226.72
2023-04-26T07:49:18.468Z,96226.47
2023-04-26T07:51:46.057Z,96226.56
2023-04-26T07:54:13.595Z,96229.94
2023-04-26T07:56:41.062Z,96231.41
2023-04-26T07:59:08.577Z,96224.06
2023-04-26T08:01:37.731Z,96227.31
2023-04-26T08:04:06.294Z,96213.97
2023-04-26T08:06:34.003Z,96213.31
2023-04-26T08:09:01.708Z,96225.84
2023-04-26T08:11:29.234Z,96224.16
2023-04-26T08:13:56.725Z,96223.25
2023-04-26T08:16:24.184Z,96224.22
2023-04-26T08:18:53.023Z,96216.38
2023-04-26T08:21:20.553Z,96206.50
2023-04-26T08:23:48.000Z,96223.09
2023-04-26T08:26:15.465Z,96232.53
2023-04-26T08:28:42.903Z,96224.75
2023-04-26T08:31:10.491Z,96227.88
2023-04-26T08:33:38.001Z,96233.78
2023-04-26T08:36:08.137Z,96236.31
2023-04-26T08:38:36.642Z,96227.38
2023-04-26T08:41:06.395Z,96246.91
2023-04-26T08:43:37.858Z,96244.13
2023-04-26T08:46:10.607Z,96245.19
2023-04-26T08:48:38.752Z,96242.75
2023-04-26T08:51:08.536Z,96235.84
2023-04-26T08:53:38.317Z,96240.72
2023-04-26T08:56:08.043Z,96238.91
2023-04-26T08:58:35.940Z,96246.13
2023-04-26T09:01:04.413Z,96231.25
2023-04-26T09:03:32.042Z,96238.97
2023-04-26T09:06:01.130Z,96237.66
2023-04-26T09:08:37.412Z,96230.97
2023-04-26T09:11:04.950Z,96234.09
2023-04-26T09:13:32.404Z,96231.34
2023-04-26T09:16:00.503Z,96234.69
2023-04-26T09:18:31.224Z,96234.88
2023-04-26T09:21:06.223Z,96230.81
2023-04-26T09:23:35.237Z,96225.75
2023-04-26T09:26:22.527Z,96214.53
2023-04-26T09:28:50.668Z,96223.06
2023-04-26T09:31:38.083Z,96243.41
2023-04-26T09:34:05.643Z,96249.22
2023-04-26T09:36:33.090Z,96236.75
2023-04-26T09:39:02.050Z,96248.41
2023-04-26T09:41:44.061Z,96238.31
2023-04-26T09:44:22.946Z,96234.22
2023-04-26T09:47:01.603Z,96227.00
2023-04-26T09:49:29.709Z,96225.41
2023-04-26T09:52:05.396Z,96225.72
2023-04-26T09:54:41.680Z,96226.06
2023-04-26T09:57:09.290Z,96234.28
2023-04-26T09:59:44.516Z,96220.03
2023-04-26T10:02:16.838Z,96224.72
2023-04-26T10:04:47.758Z,96222.34
2023-04-26T10:07:16.814Z,96235.06
2023-04-26T10:09:46.572Z,96234.09
2023-04-26T10:12:16.970Z,96241.28
2023-04-26T10:14:46.481Z,96235.66
2023-04-26T10:17:14.519Z,96222.88
2023-04-26T10:19:44.903Z,96226.38
2023-04-26T10:22:17.325Z,96211.94
2023-04-26T10:24:46.816Z,96208.63
2023-04-26T10:27:14.332Z,96204.13
2023-04-26T10:30:09.093Z,96213.56
2023-04-26T10:33:16.351Z,96210.91
2023-04-26T10:36:09.321Z,96210.03
2023-04-26T10:38:38.808Z,96214.22
2023-04-26T10:41:34.096Z,96198.97
2023-04-26T10:44:17.469Z,96208.09
2023-04-26T10:46:52.215Z,96197.31
2023-04-26T10:49:25.716Z,96194.81
2023-04-26T10:52:14.893Z,96193.31
2023-04-26T10:54:50.477Z,96193.31
2023-04-26T10:57:19.921Z,96195.06
2023-04-26T11:00:17.169Z,96204.34
2023-04-26T11:03:11.717Z,96190.84
2023-04-26T11:05:58.217Z,96186.16
2023-04-26T11:08:27.658Z,96193.53
2023-04-26T11:11:11.756Z,96186.31
2023-04-26T11:13:42.056Z,96175.34
2023-04-26T11:16:10.971Z,96183.75
2023-04-26T11:18:39.855Z,96183.25
2023-04-26T11:21:07.729Z,96190.84
2023-04-26T11:23:36.484Z,96193.16
2023-04-26T11:26:05.363Z,96193.16
2023-04-26T11:28:34.517Z,96190.16
2023-04-26T11:31:04.156Z,96188.25
2023-04-26T11:33:34.032Z,96175.50
2023-04-26T11:36:01.593Z,96182.06
2023-04-26T11:38:29.916Z,96179.22
2023-04-26T11:40:58.980Z,96189.22
2023-04-26T11:43:35.039Z,96186.88
2023-04-26T11:46:04.602Z,96184.06
2023-04-26T11:48:33.485Z,96182.03
2023-04-26T11:51:04.230Z,96195.19
2023-04-26T11:53:38.702Z,96182.38
2023-04-26T11:56:14.030Z,96179.84
2023-04-26T11:58:41.583Z,96179.38
2023-04-26T12:01:10.371Z,96169.13
2023-04-26T12:03:38.459Z,96183.53
2023-04-26T12:06:06.385Z,96177.91
2023-04-26T12:08:34.377Z,96175.53
2023-04-26T12:11:02.963Z,96176.25
2023-04-26T12:13:31.006Z,96175.22
2023-04-26T12:15:58.498Z,96173.47
2023-04-26T12:18:33.331Z,96172.97
2023-04-26T12:21:01.657Z,96170.28
2023-04-26T12:23:39.113Z,96179.41
2023-04-26T12:26:07.452Z,96175.66
2023-04-26T12:28:34.903Z,96178.66
2023-04-26T12:31:04.251Z,96181.59
2023-04-26T12:33:33.209Z,96172.66
2023-04-26T12:36:07.332Z,96165.25
2023-04-26T12:38:34.810Z,96160.34
2023-04-26T12:41:02.338Z,96148.78
2023-04-26T12:43:29.887Z,96159.69
2023-04-26T12:45:57.427Z,96160.66
2023-04-26T12:48:25.066Z,96153.88
2023-04-26T12:50:53.921Z,96149.22
2023-04-26T12:53:21.420Z,96151.88
2023-04-26T12:55:49.017Z,96156.59
2023-04-26T12:58:16.521Z,96150.44
2023-04-26T13:00:44.777Z,96148.50
2023-04-26T13:03:14.402Z,96150.81
2023-04-26T13:05:42.418Z,96152.59
2023-04-26T13:08:11.367Z,96147.72
2023-04-26T13:10:39.055Z,96151.41
2023-04-26T13:13:08.018Z,96138.84
2023-04-26T13:15:36.466Z,96132.03
2023-04-26T13:18:04.310Z,96152.34
2023-04-26T13:20:31.832Z,96153.56
2023-04-26T13:22:59.312Z,96142.44
2023-04-26T13:25:28.096Z,96146.56
2023-04-26T13:27:55.672Z,96150.81
2023-04-26T13:30:23.234Z,96142.09
2023-04-26T13:32:50.872Z,96137.03
2023-04-26T13:35:18.362Z,96138.44
2023-04-26T13:37:46.348Z,96141.03
2023-04-26T13:40:14.193Z,96146.19
2023-04-26T13:42:43.537Z,96145.19
2023-04-26T13:45:14.204Z,96130.59
2023-04-26T13:47:41.742Z,96147.31
2023-04-26T13:50:10.049Z,96146.56
2023-04-26T13:52:37.525Z,96140.19
2023-04-26T13:55:05.280Z,96140.38
2023-04-26T13:57:32.768Z,96137.94
2023-04-26T14:00:01.559Z,96125.63
2023-04-26T14:02:29.350Z,96129.25
2023-04-26T14:04:57.058Z,96127.69
2023-04-26T14:07:25.230Z,96131.78
2023-04-26T14:09:52.900Z,96132.41
2023-04-26T14:12:20.480Z,96127.53
2023-04-26T14:14:48.197Z,96123.13
2023-04-26T14:17:17.641Z,96119.44
2023-04-26T14:19:45.094Z,96124.16
2023-04-26T14:22:13.060Z,96137.56
2023-04-26T14:24:40.743Z,96133.72
2023-04-26T14:27:08.227Z,96127.22
2023-04-26T14:29:35.846Z,96128.22
2023-04-26T14:32:03.345Z,96122.41
2023-04-26T14:34:32.207Z,96125.13
2023-04-26T14:37:01.599Z,96130.69
2023-04-26T14:39:29.294Z,96135.25
2023-04-26T14:41:57.732Z,96137.22
2023-04-26T14:44:25.507Z,96138.66
2023-04-26T14:46:53.173Z,96135.47
2023-04-26T14:49:20.806Z,96135.81
2023-04-26T14:51:51.256Z,96123.84
2023-04-26T14:54:20.918Z,96114.75
2023-04-26T14:56:49.003Z,96123.94
2023-04-26T14:59:17.186Z,96124.41
2023-04-26T15:01:45.614Z,96135.97
2023-04-26T15:04:13.738Z,96129.72
2023-04-26T15:06:41.707Z,96133.63
2023-04-26T15:09:12.666Z,96129.75
2023-04-26T15:11:40.568Z,96126.00
2023-04-26T15:14:08.560Z,96124.97
2023-04-26T15:16:36.301Z,96121.75
2023-04-26T15:19:03.779Z,96121.59
2023-04-26T15:21:31.708Z,96124.06
2023-04-26T15:23:59.184Z,96117.44
2023-04-26T15:26:30.852Z,96118.53
2023-04-26T15:28:58.705Z,96114.84
2023-04-26T15:31:26.877Z,96110.44
2023-04-26T15:33:56.314Z,96114.66
2023-04-26T15:36:23.739Z,96112.22
2023-04-26T15:38:51.580Z,96111.38
2023-04-26T15:41:19.038Z,96111.94
2023-04-26T15:43:47.808Z,96119.94
2023-04-26T15:46:15.630Z,96114.00
2023-04-26T15:48:43.120Z,96114.31
2023-04-26T15:51:10.599Z,96114.66
2023-04-26T15:53:43.406Z,96112.13
2023-04-26T15:56:15.037Z,96118.75
2023-04-26T15:58:43.647Z,96116.84
2023-04-26T16:01:12.959Z,96117.31
2023-04-26T16:03:41.804Z,96119.50
2023-04-26T16:06:10.274Z,96120.94
2023-04-26T16:08:40.670Z,96118.22
2023-04-26T16:11:08.642Z,96116.13
2023-04-26T16:13:37.158Z,96117.78
2023-04-26T16:16:08.464Z,96122.41
2023-04-26T16:18:39.449Z,96117.81
2023-04-26T16:21:09.338Z,96121.59
2023-04-26T16:23:37.182Z,96124.84
2023-04-26T16:26:05.447Z,96114.06
2023-04-26T16:28:33.105Z,96112.28
2023-04-26T16:31:01.020Z,96116.34
2023-04-26T16:33:28.689Z,96112.44
2023-04-26T16:35:57.529Z,96105.69
2023-04-26T16:38:25.227Z,96114.81
2023-04-26T16:40:57.674Z,96121.09
2023-04-26T16:43:26.757Z,96118.09
2023-04-26T16:46:01.427Z,96121.19
2023-04-26T16:48:29.786Z,96123.69
2023-04-26T16:50:58.611Z,96122.31
2023-04-26T16:53:26.104Z,96111.81
2023-04-26T16:55:53.590Z,96120.19
2023-04-26T16:58:21.239Z,96118.56
2023-04-26T17:00:48.851Z,96133.16
2023-04-26T17:03:16.530Z,96126.66
2023-04-26T17:05:46.858Z,96124.00
2023-04-26T17:08:16.601Z,96130.09
2023-04-26T17:10:44.914Z,96129.78
2023-04-26T17:13:13.575Z,96128.44
2023-04-26T17:15:42.084Z,96126.22
2023-04-26T17:18:10.821Z,96127.91
2023-04-26T17:20:38.484Z,96136.09
2023-04-26T17:23:07.811Z,96139.31
2023-04-26T17:25:36.810Z,96142.22
2023-04-26T17:28:04.470Z,96138.47
2023-04-26T17:30:31.956Z,96139.03
2023-04-26T17:32:59.444Z,96139.19
2023-04-26T17:35:27.108Z,96139.66
2023-04-26T17:37:54.631Z,96139.88
2023-04-26T17:40:22.111Z,96141.44
2023-04-26T17:42:51.012Z,96143.75
2023-04-26T17:45:18.616Z,96139.09
2023-04-26T17:47:46.460Z,96149.88
2023-04-26T17:50:15.353Z,96149.22
2023-04-26T17:52:42.794Z,96152.69
2023-04-26T17:55:10.608Z,96147.41
2023-04-26T17:57:38.108Z,96151.38
2023-04-26T18:00:10.147Z,96160.34
2023-04-26T18:02:38.363Z,96154.00
2023-04-26T18:05:08.346Z,96159.47
2023-04-26T18:07:36.012Z,96158.81
2023-04-26T18:10:03.988Z,96160.50
2023-04-26T18:12:31.863Z,96162.13
2023-04-26T18:14:59.347Z,96162.44
2023-04-26T18:17:28.235Z,96171.22
2023-04-26T18:19:55.822Z,96177.41
2023-04-26T18:22:23.285Z,96178.25
2023-04-26T18:24:50.744Z,96180.41
2023-04-26T18:27:18.221Z,96186.22
2023-04-26T18:29:45.721Z,96180.91
2023-04-26T18:32:13.416Z,96181.38
2023-04-26T18:34:42.220Z,96190.84
2023-04-26T18:37:10.103Z,96187.31
2023-04-26T18:39:37.580Z,96181.84
2023-04-26T18:42:05.477Z,96188.97
2023-04-26T18:44:33.128Z,96193.50
2023-04-26T18:47:00.626Z,96195.59
2023-04-26T18:49:28.210Z,96199.97
2023-04-26T18:51:57.212Z,96205.13
2023-04-26T18:54:26.200Z,96208.09
2023-04-26T18:56:54.066Z,96212.56
2023-04-26T18:59:21.647Z,96219.38
2023-04-26T19:01:49.575Z,96215.66
2023-04-26T19:04:17.269Z,96219.91
2023-04-26T19:06:44.917Z,96224.50
2023-04-26T19:09:14.170Z,96225.81
2023-04-26T19:11:41.630Z,96220.78
2023-04-26T19:14:09.082Z,96225.34
2023-04-26T19:16:36.577Z,96220.53
2023-04-26T19:19:04.205Z,96228.78
2023-04-26T19:21:32.106Z,96232.63
2023-04-26T19:23:59.599Z,96236.38
2023-04-26T19:26:28.455Z,96233.53
2023-04-26T19:28:56.546Z,96243.97
2023-04-26T19:31:24.049Z,96246.69
2023-04-26T19:33:51.604Z,96239.91
2023-04-26T19:36:19.049Z,96241.00
2023-04-26T19:38:48.398Z,96241.09
2023-04-26T19:41:15.939Z,96242.28
2023-04-26T19:43:44.766Z,96242.47
2023-04-26T19:46:13.176Z,96245.72
2023-04-26T19:48:40.811Z,96246.47
2023-04-26T19:51:08.533Z,96242.31
2023-04-26T19:53:36.137Z,96245.41
2023-04-26T19:56:03.636Z,96250.13
2023-04-26T19:58:32.327Z,96258.00
2023-04-26T20:01:01.215Z,96257.22
2023-04-26T20:03:28.997Z,96256.81
2023-04-26T20:05:56.660Z,96254.75
2023-04-26T20:08:24.132Z,96250.59
2023-04-26T20:10:51.583Z,96258.09
2023-04-26T20:13:19.068Z,96253.56
2023-04-26T20:15:46.540Z,96249.72
2023-04-26T20:18:15.549Z,96262.25
2023-04-26T20:20:43.728Z,96262.94
2023-04-26T20:23:11.245Z,96260.44
2023-04-26T20:25:38.716Z,96257.00
2023-04-26T20:28:06.637Z,96261.72
2023-04-26T20:30:34.491Z,96267.53
2023-04-26T20:33:02.051Z,96263.66
2023-04-26T20:35:30.952Z,96256.19
2023-04-26T20:37:58.461Z,96253.97
2023-04-26T20:40:26.219Z,96257.41
2023-04-26T20:42:53.732Z,96261.16
2023-04-26T20:45:21.322Z,96261.41
2023-04-26T20:47:48.819Z,96261.13
2023-04-26T20:50:16.515Z,96260.56
2023-04-26T20:52:46.394Z,96260.72
2023-04-26T20:55:14.185Z,96263.91
2023-04-26T20:57:41.747Z,96262.66
2023-04-26T21:00:10.579Z,96261.16
2023-04-26T21:02:38.288Z,96261.19
2023-04-26T21:05:06.894Z,96267.84
2023-04-26T21:07:34.631Z,96282.78
2023-04-26T21:10:03.927Z,96273.63
2023-04-26T21:12:31.405Z,96274.22
2023-04-26T21:14:58.945Z,96266.44
2023-04-26T21:17:26.541Z,96271.59
2023-04-26T21:19:54.004Z,96270.63
2023-04-26T21:22:21.517Z,96271.72
2023-04-26T21:24:51.656Z,96273.78
2023-04-26T21:27:20.620Z,96275.75
2023-04-26T21:29:48.071Z,96274.78
2023-04-26T21:32:15.601Z,96277.69
2023-04-26T21:34:43.049Z,96280.06
2023-04-26T21:37:10.597Z,96284.78
2023-04-26T21:39:38.049Z,96287.13
2023-04-26T21:42:05.688Z,96278.38
2023-04-26T21:44:35.198Z,96285.59
2023-04-26T21:47:02.832Z,96291.44
2023-04-26T21:49:30.360Z,96292.00
2023-04-26T21:51:57.843Z,96288.09
2023-04-26T21:54:25.333Z,96290.19
2023-04-26T21:56:52.789Z,96299.34
2023-04-26T21:59:20.327Z,96297.81
2023-04-26T22:01:49.160Z,96289.78
2023-04-26T22:04:16.830Z,96295.03
2023-04-26T22:06:44.527Z,96301.81
2023-04-26T22:09:12.310Z,96290.03
2023-04-26T22:11:40.676Z,96293.50
2023-04-26T22:14:08.138Z,96290.84
2023-04-26T22:16:35.630Z,96293.22
2023-04-26T22:19:04.523Z,96286.84
2023-04-26T22:21:32.285Z,96290.47
2023-04-26T22:24:00.982Z,96278.66
2023-04-26T22:26:28.481Z,96286.03
2023-04-26T22:28:56.003Z,96293.09
2023-04-26T22:31:23.529Z,96287.28
2023-04-26T22:33:51.171Z,96295.47
2023-04-26T22:36:19.968Z,96296.13
2023-04-26T22:38:47.443Z,96297.25
2023-04-26T22:41:15.015Z,96293.06
2023-04-26T22:43:43.817Z,96290.44
2023-04-26T22:46:11.549Z,96295.31
2023-04-26T22:48:39.182Z,96300.47
2023-04-26T22:51:07.050Z,96299.09
2023-04-26T22:53:35.836Z,96305.50
2023-04-26T22:56:03.409Z,96297.78
2023-04-26T22:58:30.883Z,96304.47
2023-04-26T23:00:58.385Z,96302.22
2023-04-26T23:03:26.161Z,96310.22
2023-04-26T23:05:53.715Z,96306.94
2023-04-26T23:08:27.412Z,96309.19
2023-04-26T23:10:56.187Z,96301.16
2023-04-26T23:13:25.483Z,96311.16
2023-04-26T23:15:53.312Z,96304.19
2023-04-26T23:18:20.782Z,96308.88
2023-04-26T23:20:48.226Z,96307.59
2023-04-26T23:23:15.689Z,96302.34
2023-04-26T23:25:43.167Z,96307.63
2023-04-26T23:28:11.966Z,96312.41
2023-04-26T23:30:39.456Z,96311.41
2023-04-26T23:33:07.172Z,96311.84
2023-04-26T23:35:34.673Z,96304.19
2023-04-26T23:38:02.129Z,96308.09
2023-04-26T23:40:29.597Z,96304.84
2023-04-26T23:42:57.070Z,96312.38
2023-04-26T23:45:26.155Z,96312.78
2023-04-26T23:47:54.083Z,96312.53
2023-04-26T23:50:21.731Z,96314.47
2023-04-26T23:52:49.479Z,96309.97
2023-04-26T23:55:16.951Z,96306.59
2023-04-26T23:57:44.421Z,96304.88
